TAF KPHX
AMD KPHX 080231Z 0803/0906 23005KT P6SM BKN170 BKN250 FM080500 VRB05KT P6SM BKN170 OVC200 FM080700 11005KT P6SM BKN150 BKN200 FM082000 19004KT P6SM SCT120 BKN250 FM082200 27006KT P6SM SCT120 SCT200 FM090300 35004KT P6SM FEW080 FEW250=
METAR KPHX
KPHX 080251Z 23005KT 10SM FEW170 OVC250 18/01 A2992 RMK AO2 SLP123 T01830011 53008 ? ?
KPHX 080151Z 00000KT 10SM BKN170 BKN250 20/01 A2991 RMK AO2 SLP118 T02000006 ?
KPHX 080051Z 34004KT 10SM FEW200 SCT230 BKN250 23/M01 A2990 RMK AO2 SLP114 T02281006 ?
KPHX 072351Z 34003KT 10SM FEW015 FEW200 SCT230 BKN250 23/M02 A2989 RMK AO2 SLP113 FU FEW015 NW-N T02281017 10239 20189 53007 ?
KPHX 072251Z 00000KT 10SM FEW015 FEW200 SCT230 BKN250 23/M01 A2988 RMK AO2 SLP109 FU FEW015 W-NW T02331011 ?
WC KPHX
WS KPHX
WV KPHX